Time,TemperatureF,DewpointF,PressureIn,WindDirection,WindDirectionDegrees,WindSpeedMPH,WindSpeedGustMPH,Humidity,HourlyPrecipIn,Conditions,Clouds,dailyrainin,SolarRadiationWatts/m^2,SoftwareType,DateUTC
2013-01-20 00:20:00,7.0,0.0,30.47,SE,144,15.0,20.0,74,-99.99,,,-99.99,0.000000,,2013-01-20 08:20:00,
2013-01-20 00:22:00,9.0,1.0,30.47,SSE,148,14.0,17.0,71,-99.99,,,-99.99,0.000000,,2013-01-20 08:22:00,
2013-01-20 00:32:00,9.0,1.0,30.47,SSE,148,14.0,17.0,71,-99.99,,,-99.99,0.000000,,2013-01-20 08:32:00,
2013-01-20 00:42:00,9.0,1.0,30.47,SSE,150,15.0,18.0,70,-99.99,,,-99.99,0.000000,,2013-01-20 08:42:00,
2013-01-20 00:52:00,8.0,1.0,30.47,SSE,149,16.0,19.0,71,-99.99,,,-99.99,0.000000,,2013-01-20 08:52:00,
2013-01-20 01:02:00,7.0,0.0,30.47,SE,144,14.0,18.0,73,-99.99,,,-99.99,0.000000,,2013-01-20 09:02:00,
2013-01-20 01:12:00,7.0,0.0,30.47,SE,144,15.0,20.0,74,-99.99,,,-99.99,0.000000,,2013-01-20 09:12:00,
2013-01-20 02:02:00,5.0,-1.0,30.46,SE,143,13.0,16.0,75,-99.99,,,-99.99,0.000000,,2013-01-20 10:02:00,
2013-01-20 02:12:00,6.0,0.0,30.46,SE,146,15.0,18.0,74,-99.99,,,-99.99,0.000000,,2013-01-20 10:12:00,
2013-01-20 02:22:00,6.0,0.0,30.46,SE,146,15.0,18.0,74,-99.99,,,-99.99,0.000000,,2013-01-20 10:22:00,
2013-01-20 02:30:00,6.0,-1.0,-100.00,SE,146,13.0,16.0,73,-99.99,,,-99.99,0.000000,,2013-01-20 10:30:00,
2013-01-20 02:32:00,7.0,0.0,30.46,SE,143,14.0,17.0,73,-99.99,,,-99.99,0.000000,,2013-01-20 10:32:00,
2013-01-20 02:42:00,7.0,0.0,30.46,SSE,149,15.0,18.0,73,-99.99,,,-99.99,0.000000,,2013-01-20 10:42:00,
2013-01-20 02:52:00,6.0,0.0,30.46,SE,144,12.0,16.0,74,-99.99,,,-99.99,0.000000,,2013-01-20 10:52:00,
2013-01-20 03:02:00,6.0,0.0,30.46,SE,144,12.0,16.0,74,-99.99,,,-99.99,0.000000,,2013-01-20 11:02:00,
2013-01-20 03:12:00,6.0,-1.0,30.46,SE,146,13.0,16.0,73,-99.99,,,-99.99,0.000000,,2013-01-20 11:12:00,
2013-01-20 03:20:00,9.0,1.0,-100.00,SSE,149,17.0,20.0,70,-99.99,,,-99.99,0.000000,,2013-01-20 11:20:00,
2013-01-20 03:22:00,6.0,-1.0,30.46,SE,146,13.0,16.0,73,-99.99,,,-99.99,0.000000,,2013-01-20 11:22:00,
2013-01-20 04:03:00,9.0,1.0,30.44,SSE,149,17.0,20.0,70,-99.99,,,-99.99,0.000000,,2013-01-20 12:03:00,
2013-01-20 04:12:00,9.0,1.0,-100.00,SSE,149,17.0,20.0,70,-99.99,,,-99.99,0.000000,,2013-01-20 12:12:00,
2013-01-20 04:43:00,6.0,-1.0,30.44,SSE,149,11.0,14.0,73,-99.99,,,-99.99,0.000000,,2013-01-20 12:43:00,
2013-01-20 04:52:00,5.0,-1.0,30.44,SSE,147,9.0,12.0,74,-99.99,,,-99.99,0.000000,,2013-01-20 12:52:00,
2013-01-20 05:02:00,6.0,-1.0,30.44,SSE,150,11.0,14.0,73,-99.99,,,-99.99,0.000000,,2013-01-20 13:02:00,
2013-01-20 05:12:00,4.0,-2.0,30.44,SSE,150,12.0,14.0,74,-99.99,,,-99.99,0.000000,,2013-01-20 13:12:00,
2013-01-20 05:23:00,4.0,-2.0,30.44,SSE,150,12.0,14.0,74,-99.99,,,-99.99,0.000000,,2013-01-20 13:23:00,
2013-01-20 05:33:00,5.0,-2.0,30.44,SSE,149,13.0,16.0,74,-99.99,,,-99.99,0.000000,,2013-01-20 13:33:00,
2013-01-20 05:42:00,4.0,-3.0,30.44,SSE,147,12.0,15.0,74,-99.99,,,-99.99,0.000000,,2013-01-20 13:42:00,
2013-01-20 05:52:00,3.0,-3.0,30.44,SSE,147,12.0,15.0,75,-99.99,,,-99.99,0.000000,,2013-01-20 13:52:00,
2013-01-20 06:02:00,3.0,-3.0,30.44,SSE,149,13.0,15.0,75,-99.99,,,-99.99,0.000000,,2013-01-20 14:02:00,
2013-01-20 06:12:00,4.0,-3.0,30.45,SSE,150,12.0,16.0,73,-99.99,,,-99.99,0.000000,,2013-01-20 14:12:00,
2013-01-20 06:22:00,2.0,-4.0,30.45,SSE,152,11.0,15.0,75,-99.99,,,-99.99,0.000000,,2013-01-20 14:22:00,
2013-01-20 06:32:00,2.0,-4.0,30.45,SSE,152,11.0,15.0,75,-99.99,,,-99.99,0.000000,,2013-01-20 14:32:00,
2013-01-20 06:42:00,2.0,-4.0,30.46,SE,145,11.0,14.0,76,-99.99,,,-99.99,0.000000,,2013-01-20 14:42:00,
2013-01-20 06:52:00,2.0,-4.0,30.46,SE,145,11.0,14.0,76,-99.99,,,-99.99,0.000000,,2013-01-20 14:52:00,
2013-01-20 07:03:00,2.0,-4.0,30.45,SSE,147,11.0,14.0,76,-99.99,,,-99.99,0.000000,,2013-01-20 15:03:00,
2013-01-20 07:10:00,1.0,-5.0,-100.00,SE,145,12.0,16.0,75,-99.99,,,-99.99,7.000000,,2013-01-20 15:10:00,
2013-01-20 07:12:00,1.0,-4.0,30.44,SSE,147,12.0,14.0,76,-99.99,,,-99.99,0.000000,,2013-01-20 15:12:00,
2013-01-20 07:22:00,1.0,-5.0,30.44,SE,146,10.0,14.0,76,-99.99,,,-99.99,0.000000,,2013-01-20 15:22:00,
2013-01-20 07:33:00,1.0,-5.0,30.44,SE,146,10.0,14.0,76,-99.99,,,-99.99,0.000000,,2013-01-20 15:33:00,
2013-01-20 07:42:00,1.0,-5.0,30.44,SE,142,12.0,15.0,77,-99.99,,,-99.99,7.000000,,2013-01-20 15:42:00,
2013-01-20 07:50:00,5.0,-2.0,30.45,SSE,148,13.0,16.0,72,-99.99,,,-99.99,87.000000,,2013-01-20 15:50:00,
2013-01-20 07:52:00,1.0,-5.0,30.44,SE,145,12.0,16.0,75,-99.99,,,-99.99,7.000000,,2013-01-20 15:52:00,
2013-01-20 08:02:00,1.0,-5.0,30.44,SE,145,12.0,16.0,75,-99.99,,,-99.99,7.000000,,2013-01-20 16:02:00,
2013-01-20 08:42:00,5.0,-2.0,30.45,SSE,148,13.0,16.0,72,-99.99,,,-99.99,87.000000,,2013-01-20 16:42:00,
2013-01-20 09:10:00,15.0,3.0,-100.00,SSE,150,8.0,12.0,60,-99.99,,,-99.99,379.000000,,2013-01-20 17:10:00,
2013-01-20 09:12:00,9.0,0.0,30.46,SSE,152,8.0,12.0,67,-99.99,,,-99.99,267.000000,,2013-01-20 17:12:00,
2013-01-20 09:22:00,10.0,1.0,30.46,SSE,151,7.0,9.0,65,-99.99,,,-99.99,296.000000,,2013-01-20 17:22:00,
2013-01-20 09:32:00,12.0,2.0,30.46,SE,139,9.0,12.0,63,-99.99,,,-99.99,324.000000,,2013-01-20 17:32:00,
2013-01-20 09:42:00,14.0,3.0,30.46,SE,140,10.0,13.0,61,-99.99,,,-99.99,352.000000,,2013-01-20 17:42:00,
2013-01-20 09:52:00,15.0,3.0,30.47,SSE,150,8.0,12.0,60,-99.99,,,-99.99,379.000000,,2013-01-20 17:52:00,
2013-01-20 10:02:00,15.0,3.0,30.47,SSE,150,8.0,12.0,60,-99.99,,,-99.99,379.000000,,2013-01-20 18:02:00,
2013-01-20 10:33:00,19.0,6.0,30.47,SSE,160,7.0,10.0,56,-99.99,,,-99.99,475.000000,,2013-01-20 18:33:00,
2013-01-20 10:42:00,19.0,6.0,-100.00,SSE,160,7.0,10.0,56,-99.99,,,-99.99,475.000000,,2013-01-20 18:42:00,
2013-01-20 10:53:00,23.0,8.0,30.47,SE,139,6.0,9.0,52,-99.99,,,-99.99,514.000000,,2013-01-20 18:53:00,
2013-01-20 11:02:00,24.0,8.0,30.47,SE,138,7.0,9.0,51,-99.99,,,-99.99,531.000000,,2013-01-20 19:02:00,
2013-01-20 11:12:00,25.0,9.0,30.46,SSE,149,7.0,9.0,49,-99.99,,,-99.99,547.000000,,2013-01-20 19:12:00,
2013-01-20 11:20:00,33.0,11.0,30.43,ESE,116,3.0,5.0,40,-99.99,,,-99.99,600.000000,,2013-01-20 19:20:00,
2013-01-20 11:22:00,26.0,9.0,30.46,SSE,159,6.0,8.0,47,-99.99,,,-99.99,561.000000,,2013-01-20 19:22:00,
2013-01-20 11:33:00,28.0,9.0,30.46,SSE,159,6.0,7.0,44,-99.99,,,-99.99,573.000000,,2013-01-20 19:33:00,
2013-01-20 11:42:00,29.0,10.0,30.45,SE,145,4.0,7.0,44,-99.99,,,-99.99,583.000000,,2013-01-20 19:42:00,
2013-01-20 11:52:00,32.0,11.0,30.44,ESE,123,2.0,3.0,41,-99.99,,,-99.99,593.000000,,2013-01-20 19:52:00,
2013-01-20 12:02:00,32.0,11.0,30.44,ESE,123,2.0,3.0,41,-99.99,,,-99.99,593.000000,,2013-01-20 20:02:00,
2013-01-20 12:12:00,33.0,11.0,30.43,ESE,116,3.0,5.0,40,-99.99,,,-99.99,600.000000,,2013-01-20 20:12:00,
2013-01-20 12:42:00,34.0,14.0,30.42,West,278,0.0,2.0,43,-99.99,,,-99.99,609.000000,,2013-01-20 20:42:00,
2013-01-20 12:53:00,34.0,15.0,30.42,NW,316,2.0,4.0,45,-99.99,,,-99.99,606.000000,,2013-01-20 20:53:00,
2013-01-20 13:03:00,34.0,15.0,30.42,NW,316,2.0,4.0,45,-99.99,,,-99.99,606.000000,,2013-01-20 21:03:00,
2013-01-20 13:12:00,35.0,10.0,30.40,NW,319,1.0,4.0,35,-99.99,,,-99.99,603.000000,,2013-01-20 21:12:00,
2013-01-20 13:22:00,37.0,10.0,30.39,WNW,296,0.0,3.0,32,-99.99,,,-99.99,593.000000,,2013-01-20 21:22:00,
2013-01-20 13:33:00,37.0,10.0,30.39,WNW,296,0.0,3.0,32,-99.99,,,-99.99,593.000000,,2013-01-20 21:33:00,
2013-01-20 13:43:00,36.0,11.0,30.39,North,354,2.0,3.0,34,-99.99,,,-99.99,573.000000,,2013-01-20 21:43:00,
2013-01-20 13:52:00,38.0,11.0,30.39,WSW,250,1.0,2.0,32,-99.99,,,-99.99,561.000000,,2013-01-20 21:52:00,
2013-01-20 14:03:00,38.0,11.0,30.39,WSW,250,1.0,2.0,32,-99.99,,,-99.99,561.000000,,2013-01-20 22:03:00,
2013-01-20 14:12:00,39.0,10.0,30.38,SSW,196,1.0,2.0,30,-99.99,,,-99.99,546.000000,,2013-01-20 22:12:00,
2013-01-20 14:22:00,38.0,10.0,30.38,WNW,302,1.0,2.0,31,-99.99,,,-99.99,513.000000,,2013-01-20 22:22:00,
2013-01-20 14:33:00,38.0,10.0,30.38,NW,318,2.0,3.0,32,-99.99,,,-99.99,493.000000,,2013-01-20 22:33:00,
2013-01-20 14:43:00,37.0,11.0,30.39,NNW,333,3.0,5.0,33,-99.99,,,-99.99,473.000000,,2013-01-20 22:43:00,
2013-01-20 14:52:00,37.0,11.0,30.39,NW,324,2.0,3.0,33,-99.99,,,-99.99,451.000000,,2013-01-20 22:52:00,
2013-01-20 15:03:00,38.0,10.0,30.39,NNW,334,3.0,6.0,32,-99.99,,,-99.99,427.000000,,2013-01-20 23:03:00,
2013-01-20 15:12:00,36.0,13.0,30.39,NNW,347,5.0,6.0,37,-99.99,,,-99.99,401.000000,,2013-01-20 23:12:00,
2013-01-20 15:23:00,35.0,14.0,30.39,NNW,344,5.0,7.0,40,-99.99,,,-99.99,374.000000,,2013-01-20 23:23:00,
2013-01-20 15:33:00,34.0,14.0,30.39,NNW,330,5.0,8.0,42,-99.99,,,-99.99,346.000000,,2013-01-20 23:33:00,
2013-01-20 16:13:00,35.0,16.0,30.39,NNW,331,3.0,5.0,45,-99.99,,,-99.99,227.000000,,2013-01-21 00:13:00,
2013-01-20 16:22:00,34.0,15.0,30.40,NW,313,3.0,4.0,45,-99.99,,,-99.99,197.000000,,2013-01-21 00:22:00,
2013-01-20 16:33:00,33.0,15.0,30.40,WNW,289,4.0,5.0,46,-99.99,,,-99.99,167.000000,,2013-01-21 00:33:00,
2013-01-20 16:42:00,32.0,14.0,30.40,West,279,5.0,6.0,47,-99.99,,,-99.99,134.000000,,2013-01-21 00:42:00,
2013-01-20 16:53:00,33.0,13.0,30.40,WNW,298,2.0,5.0,44,-99.99,,,-99.99,94.000000,,2013-01-21 00:53:00,
2013-01-20 17:02:00,34.0,13.0,30.40,WNW,283,2.0,3.0,42,-99.99,,,-99.99,42.000000,,2013-01-21 01:02:00,
2013-01-20 17:12:00,31.0,13.0,30.41,West,267,1.0,3.0,47,-99.99,,,-99.99,11.000000,,2013-01-21 01:12:00,
2013-01-20 17:22:00,29.0,13.0,30.41,NW,326,1.0,3.0,50,-99.99,,,-99.99,7.000000,,2013-01-21 01:22:00,
2013-01-20 17:32:00,29.0,13.0,30.41,NW,326,1.0,3.0,50,-99.99,,,-99.99,7.000000,,2013-01-21 01:32:00,
2013-01-20 17:43:00,28.0,13.0,30.40,SSW,211,0.0,4.0,52,-99.99,,,-99.99,7.000000,,2013-01-21 01:43:00,
2013-01-20 17:52:00,26.0,12.0,30.41,SSE,167,0.0,2.0,55,-99.99,,,-99.99,2.000000,,2013-01-21 01:52:00,
2013-01-20 18:03:00,26.0,12.0,30.41,SSE,167,0.0,2.0,55,-99.99,,,-99.99,2.000000,,2013-01-21 02:03:00,
2013-01-20 18:12:00,20.0,10.0,30.40,SE,144,3.0,5.0,65,-99.99,,,-99.99,0.000000,,2013-01-21 02:12:00,
2013-01-20 18:23:00,20.0,10.0,30.40,SE,144,3.0,5.0,65,-99.99,,,-99.99,0.000000,,2013-01-21 02:23:00,
2013-01-20 18:33:00,17.0,9.0,30.41,SSE,152,4.0,6.0,69,-99.99,,,-99.99,0.000000,,2013-01-21 02:33:00,
2013-01-20 18:42:00,14.0,8.0,30.40,SE,137,8.0,9.0,75,-99.99,,,-99.99,0.000000,,2013-01-21 02:42:00,
2013-01-20 18:52:00,14.0,8.0,30.40,SSE,153,6.0,8.0,77,-99.99,,,-99.99,0.000000,,2013-01-21 02:52:00,
2013-01-20 19:02:00,14.0,8.0,30.40,SSE,153,6.0,8.0,77,-99.99,,,-99.99,0.000000,,2013-01-21 03:02:00,
2013-01-20 19:12:00,12.0,6.0,30.41,SE,141,9.0,10.0,78,-99.99,,,-99.99,0.000000,,2013-01-21 03:12:00,
2013-01-20 19:23:00,12.0,6.0,30.41,SE,141,9.0,10.0,78,-99.99,,,-99.99,0.000000,,2013-01-21 03:23:00,
2013-01-20 19:33:00,12.0,7.0,30.41,SE,143,8.0,9.0,78,-99.99,,,-99.99,0.000000,,2013-01-21 03:33:00,
2013-01-20 19:52:00,14.0,7.0,30.41,SSE,153,9.0,11.0,75,-99.99,,,-99.99,0.000000,,2013-01-21 03:52:00,
2013-01-20 20:02:00,13.0,7.0,30.41,SE,146,9.0,12.0,76,-99.99,,,-99.99,0.000000,,2013-01-21 04:02:00,
2013-01-20 20:12:00,12.0,6.0,30.41,SSE,149,9.0,12.0,77,-99.99,,,-99.99,0.000000,,2013-01-21 04:12:00,
2013-01-20 20:22:00,12.0,6.0,30.41,SSE,149,9.0,12.0,77,-99.99,,,-99.99,0.000000,,2013-01-21 04:22:00,
2013-01-20 20:32:00,12.0,6.0,30.41,SSE,151,8.0,10.0,75,-99.99,,,-99.99,0.000000,,2013-01-21 04:32:00,
2013-01-20 20:42:00,11.0,5.0,30.41,SSE,150,11.0,12.0,75,-99.99,,,-99.99,0.000000,,2013-01-21 04:42:00,
2013-01-20 20:52:00,11.0,5.0,30.41,SSE,150,11.0,12.0,75,-99.99,,,-99.99,0.000000,,2013-01-21 04:52:00,
2013-01-20 21:12:00,12.0,5.0,30.42,SSE,150,9.0,12.0,73,-99.99,,,-99.99,0.000000,,2013-01-21 05:12:00,
2013-01-20 21:20:00,9.0,2.0,30.43,SSE,160,10.0,14.0,73,-99.99,,,-99.99,0.000000,,2013-01-21 05:20:00,
2013-01-20 21:22:00,10.0,3.0,30.42,SSE,148,9.0,12.0,73,-99.99,,,-99.99,0.000000,,2013-01-21 05:22:00,
2013-01-20 21:33:00,10.0,3.0,30.42,SSE,148,9.0,12.0,73,-99.99,,,-99.99,0.000000,,2013-01-21 05:33:00,
2013-01-20 21:50:00,9.0,2.0,30.43,SE,144,10.0,13.0,72,-99.99,,,-99.99,0.000000,,2013-01-21 05:50:00,
2013-01-20 21:52:00,10.0,3.0,30.43,SSE,161,10.0,13.0,73,-99.99,,,-99.99,0.000000,,2013-01-21 05:52:00,
2013-01-20 22:02:00,10.0,3.0,30.43,SSE,161,10.0,13.0,73,-99.99,,,-99.99,0.000000,,2013-01-21 06:02:00,
2013-01-20 22:12:00,9.0,2.0,30.43,SSE,160,10.0,14.0,73,-99.99,,,-99.99,0.000000,,2013-01-21 06:12:00,
2013-01-20 22:33:00,10.0,2.0,30.43,SSE,151,12.0,16.0,72,-99.99,,,-99.99,0.000000,,2013-01-21 06:33:00,
2013-01-20 22:43:00,9.0,2.0,30.43,SE,144,10.0,13.0,72,-99.99,,,-99.99,0.000000,,2013-01-21 06:43:00,
2013-01-20 23:12:00,9.0,2.0,30.45,SE,146,9.0,13.0,71,-99.99,,,-99.99,0.000000,,2013-01-21 07:12:00,
2013-01-20 23:22:00,9.0,1.0,30.45,SSE,152,12.0,15.0,71,-99.99,,,-99.99,0.000000,,2013-01-21 07:22:00,
2013-01-20 23:33:00,8.0,1.0,30.44,SSE,148,13.0,17.0,72,-99.99,,,-99.99,0.000000,,2013-01-21 07:33:00,
2013-01-20 23:42:00,8.0,1.0,30.44,SE,144,12.0,17.0,72,-99.99,,,-99.99,0.000000,,2013-01-21 07:42:00,
2013-01-20 23:52:00,10.0,2.0,30.44,SSE,149,11.0,13.0,71,-99.99,,,-99.99,0.000000,,2013-01-21 07:52:00,